Time;durP1;ratioP1;P1;durP2;ratioP2;P2;SDS_P1;SDS_P2;PMS_P1;PMS_P2;Temp;Humidity;BMP_temperature;BMP_pressure;BME280_temperature;BME280_humidity;BME280_pressure;Samples;Min_cycle;Max_cycle;Signal;HPM_P1;HPM_P2
2022/10/05 00:01:29;;;;;;;18.00;9.00;;;;;;;8.95;78.61;100678.35;107601;1270;138328;-84
2022/10/05 00:04:08;;;;;;;15.80;9.20;;;;;;;8.95;78.65;100680.08;107744;1270;94760;-83
2022/10/05 00:06:37;;;;;;;15.60;8.70;;;;;;;8.98;78.56;100680.05;107745;1271;94597;-83
2022/10/05 00:09:12;;;;;;;16.50;9.40;;;;;;;8.98;78.64;100675.21;107666;1271;138811;-84
2022/10/05 00:11:41;;;;;;;15.40;9.00;;;;;;;9.00;78.66;100671.54;107742;1270;109319;-85
2022/10/05 00:14:16;;;;;;;15.70;8.90;;;;;;;9.00;78.56;100672.39;107638;1270;139053;-86
2022/10/05 00:16:45;;;;;;;17.70;8.80;;;;;;;9.02;78.64;100673.73;107749;1270;94710;-84
2022/10/05 00:19:32;;;;;;;15.70;8.70;;;;;;;9.05;78.69;100677.30;107694;1270;139108;-85
2022/10/05 00:22:10;;;;;;;17.40;9.60;;;;;;;9.07;78.63;100676.58;107796;1270;111313;-85
2022/10/05 00:24:38;;;;;;;18.80;9.40;;;;;;;9.08;78.66;100672.73;107784;1270;108931;-86
2022/10/05 00:27:16;;;;;;;15.90;8.70;;;;;;;9.09;78.61;100667.51;107629;1270;139423;-85
2022/10/05 00:29:45;;;;;;;14.70;9.00;;;;;;;9.11;78.51;100658.80;107663;1269;94644;-84
2022/10/05 00:32:14;;;;;;;19.40;9.40;;;;;;;9.13;78.55;100653.04;107618;1270;138172;-88
2022/10/05 00:34:43;;;;;;;15.60;9.40;;;;;;;9.15;78.57;100654.92;107666;1270;110807;-87
2022/10/05 00:37:14;;;;;;;15.70;9.90;;;;;;;9.16;78.50;100656.13;107449;1270;139604;-84
2022/10/05 00:39:43;;;;;;;20.00;9.60;;;;;;;9.18;78.58;100655.58;107588;1270;108080;-82
2022/10/05 00:42:28;;;;;;;17.70;9.00;;;;;;;9.19;78.43;100658.48;107623;1270;94787;-86
2022/10/05 00:45:02;;;;;;;19.30;9.90;;;;;;;9.21;78.49;100660.36;107500;1270;140023;-86
2022/10/05 00:47:40;;;;;;;15.60;8.70;;;;;;;9.23;78.44;100661.36;107697;1271;111307;-84
2022/10/05 00:50:25;;;;;;;16.00;8.60;;;;;;;9.24;78.46;100661.86;107545;1270;138916;-85
2022/10/05 00:53:00;;;;;;;15.70;9.10;;;;;;;9.25;78.35;100668.59;107700;1270;111255;-83
2022/10/05 00:55:41;;;;;;;16.60;9.30;;;;;;;9.28;78.44;100676.00;107665;1270;140347;-84
2022/10/05 00:58:22;;;;;;;17.20;9.80;;;;;;;9.29;78.37;100673.72;107697;1270;95937;-84
2022/10/05 01:01:01;;;;;;;16.10;8.60;;;;;;;9.30;78.27;100672.83;107680;1270;110803;-84
2022/10/05 01:03:39;;;;;;;16.20;9.10;;;;;;;9.31;78.13;100671.77;107593;1270;138909;-84
2022/10/05 01:06:18;;;;;;;16.50;8.80;;;;;;;9.30;78.28;100662.92;107562;1269;107977;-83
2022/10/05 01:08:57;;;;;;;14.50;8.50;;;;;;;9.32;78.31;100661.15;107604;1270;140614;-83
2022/10/05 01:11:30;;;;;;;17.60;9.10;;;;;;;9.34;78.29;100664.77;107718;1270;94990;-84
2022/10/05 01:14:07;;;;;;;15.20;9.30;;;;;;;9.34;78.21;100665.30;107577;1270;138369;-84
2022/10/05 01:16:47;;;;;;;24.40;10.40;;;;;;;9.37;78.23;100667.31;107609;1270;109101;-86
2022/10/05 01:19:35;;;;;;;16.20;8.80;;;;;;;9.38;78.14;100670.95;107498;1269;139127;-84
2022/10/05 01:22:15;;;;;;;15.80;9.20;;;;;;;9.39;78.27;100671.45;107603;1271;94947;-84
2022/10/05 01:25:04;;;;;;;17.80;9.10;;;;;;;9.41;78.10;100673.14;107716;1270;94652;-84
2022/10/05 01:27:54;;;;;;;17.70;9.30;;;;;;;9.41;78.18;100668.80;107539;1271;139585;-83
2022/10/05 01:30:23;;;;;;;18.10;9.50;;;;;;;9.41;78.07;100670.36;107674;1271;108700;-84
2022/10/05 01:33:01;;;;;;;15.50;8.60;;;;;;;9.41;77.99;100669.49;107407;1272;138719;-83
2022/10/05 01:35:41;;;;;;;14.80;8.70;;;;;;;9.42;78.17;100669.64;107690;1271;94884;-83
2022/10/05 01:38:23;;;;;;;19.60;9.30;;;;;;;9.42;78.03;100666.69;107555;1270;140395;-85
2022/10/05 01:41:01;;;;;;;18.20;9.10;;;;;;;9.43;78.10;100660.61;107684;1270;111637;-83
2022/10/05 01:43:40;;;;;;;18.20;9.20;;;;;;;9.43;78.07;100657.30;107500;1271;139145;-83
2022/10/05 01:46:23;;;;;;;14.70;8.90;;;;;;;9.43;78.01;100652.60;107509;1271;109560;-83
2022/10/05 01:49:05;;;;;;;14.30;8.50;;;;;;;9.42;78.00;100653.16;107675;1271;94809;-83
2022/10/05 01:51:42;;;;;;;21.40;9.60;;;;;;;9.40;77.99;100666.20;107566;1270;138798;-84
2022/10/05 01:54:25;;;;;;;16.00;9.10;;;;;;;9.39;78.08;100674.38;107660;1271;110351;-86
2022/10/05 01:57:04;;;;;;;18.30;8.60;;;;;;;9.40;78.07;100674.53;107520;1271;139258;-85
2022/10/05 01:59:47;;;;;;;20.20;9.10;;;;;;;9.41;78.01;100675.75;107487;1270;108360;-83
2022/10/05 02:02:18;;;;;;;13.90;8.80;;;;;;;9.39;78.05;100676.48;107629;1270;139956;-83
2022/10/05 02:04:50;;;;;;;19.20;9.30;;;;;;;9.39;78.12;100676.83;107731;1271;94460;-84
2022/10/05 02:07:39;;;;;;;18.80;9.00;;;;;;;9.38;78.18;100679.45;107528;1270;138402;-82
2022/10/05 02:10:18;;;;;;;16.10;8.20;;;;;;;9.36;78.11;100672.02;107612;1271;108507;-82
2022/10/05 02:12:51;;;;;;;14.30;8.70;;;;;;;9.36;78.17;100660.92;107661;1271;108818;-83
2022/10/05 02:15:26;;;;;;;18.20;9.60;;;;;;;9.35;78.20;100659.21;107560;1271;138935;-84
2022/10/05 02:18:10;;;;;;;16.50;9.50;;;;;;;9.34;78.17;100652.81;107667;1270;94894;-83
2022/10/05 02:20:42;;;;;;;17.20;9.20;;;;;;;9.31;78.25;100651.80;107551;1271;139625;-82
2022/10/05 02:23:16;;;;;;;18.50;9.80;;;;;;;9.30;78.31;100646.45;107664;1270;107874;-84
2022/10/05 02:25:49;;;;;;;15.70;9.40;;;;;;;9.29;78.36;100634.33;107541;1271;139133;-83
2022/10/05 02:28:22;;;;;;;18.60;10.90;;;;;;;9.29;78.46;100616.64;107705;1271;94772;-84
2022/10/05 02:30:56;;;;;;;19.40;11.10;;;;;;;9.29;78.41;100603.80;107688;1270;94734;-84
2022/10/05 02:33:29;;;;;;;19.70;10.90;;;;;;;9.28;78.50;100604.33;107666;1270;139452;-84
2022/10/05 02:36:07;;;;;;;20.50;11.90;;;;;;;9.27;78.56;100624.81;107676;1271;108939;-83
2022/10/05 02:38:47;;;;;;;18.20;11.70;;;;;;;9.28;78.66;100627.42;107523;1270;139001;-84
2022/10/05 02:41:25;;;;;;;18.60;11.30;;;;;;;9.28;78.70;100630.52;107698;1271;95529;-84
2022/10/05 02:44:03;;;;;;;19.40;11.70;;;;;;;9.28;78.64;100630.88;107519;1271;139526;-84
2022/10/05 02:46:40;;;;;;;18.70;11.20;;;;;;;9.28;78.73;100614.91;107657;1271;110059;-83
2022/10/05 02:49:21;;;;;;;23.10;10.80;;;;;;;9.29;78.75;100616.12;107647;1271;109184;-84
2022/10/05 02:51:57;;;;;;;17.00;10.60;;;;;;;9.28;78.78;100620.64;107582;1271;107968;-84
2022/10/05 02:54:41;;;;;;;15.70;9.70;;;;;;;9.27;78.75;100633.85;107670;1271;95461;-85
2022/10/05 02:57:19;;;;;;;18.30;11.20;;;;;;;9.24;78.76;100636.35;107512;1271;138391;-84
2022/10/05 02:59:56;;;;;;;21.80;11.60;;;;;;;9.23;78.94;100622.32;107658;1270;111374;-85
2022/10/05 03:02:31;;;;;;;18.80;10.10;;;;;;;9.21;78.90;100625.65;107556;1270;139825;-85
2022/10/05 03:05:12;;;;;;;16.70;10.40;;;;;;;9.19;78.83;100637.33;107687;1271;106834;-84
2022/10/05 03:07:48;;;;;;;19.50;11.10;;;;;;;9.15;78.94;100643.45;107531;1271;140232;-85
2022/10/05 03:10:25;;;;;;;19.20;10.80;;;;;;;9.13;79.05;100654.43;107622;1270;96177;-85
2022/10/05 03:13:01;;;;;;;19.40;11.10;;;;;;;9.13;79.22;100653.56;107630;1271;111192;-84
2022/10/05 03:15:54;;;;;;;20.20;11.10;;;;;;;9.12;79.20;100645.09;107520;1271;138909;-83
2022/10/05 03:18:35;;;;;;;22.00;11.40;;;;;;;9.10;79.17;100649.45;107630;1271;108168;-84
2022/10/05 03:21:13;;;;;;;25.10;10.70;;;;;;;9.09;79.28;100646.52;107503;1271;140041;-84
2022/10/05 03:24:00;;;;;;;18.10;11.80;;;;;;;9.09;79.39;100654.16;107542;1271;94864;-84
2022/10/05 03:26:38;;;;;;;22.60;11.90;;;;;;;9.09;79.50;100657.45;107523;1271;140288;-85
2022/10/05 03:29:20;;;;;;;22.10;12.50;;;;;;;9.10;79.41;100661.08;107687;1270;108853;-85
2022/10/05 03:31:57;;;;;;;21.30;12.00;;;;;;;9.11;79.45;100656.55;107491;1272;139984;-84
2022/10/05 03:34:33;;;;;;;21.40;12.30;;;;;;;9.12;79.55;100652.89;107672;1271;95015;-84
2022/10/05 03:37:10;;;;;;;23.20;11.90;;;;;;;9.14;79.46;100654.93;107618;1271;94849;-83
2022/10/05 03:39:44;;;;;;;24.90;13.20;;;;;;;9.14;79.47;100653.55;107609;1271;110831;-81
2022/10/05 03:42:24;;;;;;;18.30;11.90;;;;;;;9.13;79.49;100649.58;107628;1271;108890;-84
2022/10/05 03:45:02;;;;;;;26.70;12.60;;;;;;;9.13;79.48;100642.64;107494;1271;138618;-84
2022/10/05 03:47:39;;;;;;;19.40;11.90;;;;;;;9.13;79.56;100636.56;107672;1270;96487;-84
2022/10/05 03:50:30;;;;;;;26.20;13.10;;;;;;;9.14;79.57;100629.08;107420;1271;139248;-84
2022/10/05 03:53:05;;;;;;;18.80;12.60;;;;;;;9.14;79.64;100634.63;107609;1271;111658;-84
2022/10/05 03:55:40;;;;;;;19.50;12.90;;;;;;;9.15;79.77;100637.05;107486;1271;139813;-84
2022/10/05 03:58:16;;;;;;;22.20;12.80;;;;;;;9.16;79.78;100639.12;107643;1270;108550;-84
2022/10/05 04:00:52;;;;;;;20.80;12.60;;;;;;;9.17;79.76;100633.20;107623;1271;95006;-85
2022/10/05 04:03:25;;;;;;;24.70;12.50;;;;;;;9.17;79.86;100629.05;107461;1270;138871;-83
2022/10/05 04:05:59;;;;;;;17.50;11.80;;;;;;;9.17;79.80;100622.80;107648;1270;110183;-86
2022/10/05 04:08:38;;;;;;;21.70;11.50;;;;;;;9.18;79.91;100617.39;107615;1271;139654;-85
2022/10/05 04:11:12;;;;;;;20.90;11.30;;;;;;;9.20;79.91;100615.63;107640;1271;107770;-85
2022/10/05 04:13:46;;;;;;;19.80;11.20;;;;;;;9.21;79.98;100615.78;107513;1271;138918;-84
2022/10/05 04:16:20;;;;;;;21.10;11.30;;;;;;;9.22;79.97;100619.57;107545;1271;94531;-81
2022/10/05 04:18:55;;;;;;;19.10;10.50;;;;;;;9.21;79.86;100622.52;107734;1270;110119;-83
2022/10/05 04:21:31;;;;;;;22.20;10.60;;;;;;;9.21;79.96;100625.14;107504;1271;140349;-83
2022/10/05 04:24:04;;;;;;;19.10;10.30;;;;;;;9.20;79.91;100626.71;107706;1270;107892;-84
2022/10/05 04:26:40;;;;;;;15.90;9.40;;;;;;;9.19;79.87;100630.05;107533;1269;140131;-84
2022/10/05 04:29:17;;;;;;;20.20;10.10;;;;;;;9.16;79.84;100630.45;107608;1270;94711;-84
2022/10/05 04:32:03;;;;;;;20.50;10.20;;;;;;;9.14;79.83;100631.52;107533;1270;139585;-83
2022/10/05 04:34:44;;;;;;;18.30;9.70;;;;;;;9.09;79.93;100627.61;107719;1270;109355;-84
2022/10/05 04:37:19;;;;;;;18.50;9.20;;;;;;;9.06;80.02;100633.24;107479;1271;138983;-84
2022/10/05 04:39:57;;;;;;;19.00;10.20;;;;;;;9.02;80.07;100637.30;107725;1270;94797;-83
2022/10/05 04:42:35;;;;;;;15.70;10.00;;;;;;;9.02;80.12;100637.14;107604;1271;94704;-84
2022/10/05 04:45:13;;;;;;;17.60;9.80;;;;;;;9.00;80.27;100635.45;107501;1271;139391;-84
2022/10/05 04:48:02;;;;;;;22.30;10.20;;;;;;;8.98;80.36;100641.20;107675;1270;107784;-85
2022/10/05 04:50:47;;;;;;;20.40;10.50;;;;;;;8.96;80.38;100638.63;107556;1270;138721;-85
2022/10/05 04:53:27;;;;;;;19.80;9.80;;;;;;;8.95;80.44;100636.73;107517;1272;94937;-84
2022/10/05 04:56:01;;;;;;;17.70;10.50;;;;;;;8.94;80.50;100640.92;107475;1271;139628;-83
2022/10/05 04:58:43;;;;;;;17.70;9.90;;;;;;;8.94;80.56;100639.70;107583;1271;110201;-82
2022/10/05 05:01:27;;;;;;;19.60;9.40;;;;;;;8.94;80.57;100642.84;107426;1272;140247;-83
2022/10/05 05:04:13;;;;;;;20.70;10.40;;;;;;;8.93;80.56;100646.48;107528;1271;109242;-84
2022/10/05 05:06:54;;;;;;;17.10;10.30;;;;;;;8.94;80.73;100648.38;107580;1271;94828;-84
2022/10/05 05:09:42;;;;;;;15.00;10.00;;;;;;;8.96;80.70;100656.66;107505;1271;139420;-83
2022/10/05 05:12:24;;;;;;;21.00;10.50;;;;;;;8.99;80.75;100656.11;107595;1272;110936;-83
2022/10/05 05:15:07;;;;;;;19.20;9.80;;;;;;;9.01;80.77;100654.34;107575;1271;138559;-84
2022/10/05 05:17:55;;;;;;;14.30;9.70;;;;;;;9.04;80.74;100654.27;107580;1271;108381;-83
2022/10/05 05:20:35;;;;;;;17.20;10.00;;;;;;;9.09;80.81;100655.55;107462;1271;141993;-83
2022/10/05 05:23:12;;;;;;;17.50;10.00;;;;;;;9.13;80.69;100655.30;107685;1271;94882;-85
2022/10/05 05:25:56;;;;;;;19.70;9.90;;;;;;;9.16;80.74;100651.95;107523;1271;140387;-83
2022/10/05 05:28:35;;;;;;;17.40;9.80;;;;;;;9.22;80.72;100657.75;107680;1270;108966;-83
2022/10/05 05:31:14;;;;;;;18.30;10.50;;;;;;;9.27;80.64;100654.16;107691;1270;108686;-84
2022/10/05 05:33:52;;;;;;;18.10;10.30;;;;;;;9.31;80.59;100655.98;107698;1270;95224;-83
2022/10/05 05:36:54;;;;;;;20.30;10.10;;;;;;;9.33;80.38;100652.11;107746;1269;94560;-84
2022/10/05 05:39:33;;;;;;;19.00;9.80;;;;;;;9.37;80.48;100653.27;107124;1276;141009;-83
2022/10/05 05:42:19;;;;;;;19.70;10.20;;;;;;;9.42;80.32;100643.44;107319;1276;108042;-83
2022/10/05 05:44:52;;;;;;;17.50;10.80;;;;;;;9.44;80.11;100637.48;107209;1275;139175;-83
2022/10/05 05:47:28;;;;;;;23.80;10.30;;;;;;;9.46;80.27;100641.11;107256;1275;94699;-85
2022/10/05 05:50:12;;;;;;;21.90;11.40;;;;;;;9.47;80.19;100650.95;107069;1276;138585;-84
2022/10/05 05:52:48;;;;;;;20.50;10.70;;;;;;;9.49;80.20;100655.26;107213;1277;110213;-83
2022/10/05 05:55:23;;;;;;;20.50;10.30;;;;;;;9.51;80.08;100655.39;107229;1275;140568;-84
2022/10/05 05:58:03;;;;;;;14.60;9.40;;;;;;;9.55;80.00;100656.52;107196;1277;110280;-84
2022/10/05 06:00:38;;;;;;;14.50;9.60;;;;;;;9.60;80.09;100651.02;107256;1276;94940;-85
2022/10/05 06:03:18;;;;;;;18.80;10.10;;;;;;;9.65;79.91;100646.58;107111;1276;139933;-85
2022/10/05 06:05:52;;;;;;;15.10;9.90;;;;;;;9.70;79.84;100657.95;107226;1277;110407;-85
2022/10/05 06:08:29;;;;;;;15.30;9.60;;;;;;;9.74;79.60;100651.59;107092;1277;139971;-83
2022/10/05 06:11:09;;;;;;;14.80;8.90;;;;;;;9.79;79.51;100653.58;107181;1276;108079;-84
2022/10/05 06:13:40;;;;;;;16.40;8.50;;;;;;;9.84;79.48;100650.15;107295;1271;140062;-86
2022/10/05 06:16:17;;;;;;;14.20;8.50;;;;;;;9.90;79.19;100654.70;107629;1271;94825;-77
2022/10/05 06:18:52;;;;;;;13.50;8.50;;;;;;;9.98;79.19;100650.17;107614;1270;111005;-81
2022/10/05 06:21:29;;;;;;;14.50;8.60;;;;;;;10.07;79.01;100652.92;107517;1271;138312;-85
2022/10/05 06:24:04;;;;;;;13.40;8.00;;;;;;;10.15;78.83;100649.43;107611;1271;109275;-82
2022/10/05 06:27:19;;;;;;;16.90;8.50;;;;;;;10.21;78.64;100641.13;107607;1271;139353;-83
2022/10/05 06:30:02;;;;;;;14.70;8.70;;;;;;;10.28;78.50;100639.93;106650;1282;94994;-83
2022/10/05 06:32:36;;;;;;;18.90;8.80;;;;;;;10.36;78.24;100642.36;106656;1282;139412;-84
2022/10/05 06:35:15;;;;;;;16.30;7.70;;;;;;;10.44;78.06;100651.20;106755;1281;107823;-84
2022/10/05 06:38:02;;;;;;;24.30;8.70;;;;;;;10.53;78.04;100646.41;106628;1281;139218;-82
2022/10/05 06:40:46;;;;;;;14.60;8.10;;;;;;;10.66;77.82;100631.68;106690;1281;94907;-84
2022/10/05 06:43:34;;;;;;;14.20;7.60;;;;;;;10.74;77.47;100641.16;106485;1281;140081;-84
2022/10/05 06:46:29;;;;;;;20.20;7.80;;;;;;;10.83;77.19;100649.12;106727;1281;109825;-82
2022/10/05 06:49:22;;;;;;;18.60;7.90;;;;;;;10.90;77.01;100654.32;106672;1282;138760;-82
2022/10/05 06:52:24;;;;;;;14.60;7.00;;;;;;;10.98;76.82;100659.17;106702;1281;110232;-83
2022/10/05 06:55:09;;;;;;;13.00;7.40;;;;;;;11.01;76.58;100665.85;106539;1281;97395;-81
2022/10/05 06:57:54;;;;;;;15.20;7.30;;;;;;;11.07;76.53;100670.40;106769;1280;94721;-82
2022/10/05 07:00:28;;;;;;;12.10;7.10;;;;;;;11.09;76.36;100663.00;106690;1277;109723;-82
2022/10/05 07:03:04;;;;;;;14.70;7.10;;;;;;;11.12;76.18;100666.23;107102;1276;139778;-81
2022/10/05 07:06:05;;;;;;;14.60;7.00;;;;;;;11.14;76.05;100661.66;107106;1278;108058;-82
2022/10/05 07:08:46;;;;;;;15.40;7.30;;;;;;;11.16;75.91;100655.86;107604;1270;139152;-82
2022/10/05 07:11:26;;;;;;;14.80;7.60;;;;;;;11.21;75.75;100653.13;107698;1270;94801;-80
2022/10/05 07:14:11;;;;;;;14.60;7.60;;;;;;;11.26;75.67;100651.05;107496;1270;139571;-81
2022/10/05 07:16:53;;;;;;;17.00;7.80;;;;;;;11.30;75.42;100652.52;107780;1268;110027;-80
2022/10/05 07:19:36;;;;;;;13.40;7.60;;;;;;;11.37;75.40;100655.80;107495;1271;139698;-79
2022/10/05 07:22:26;;;;;;;14.10;7.40;;;;;;;11.47;75.34;100647.32;107644;1271;95199;-82
2022/10/05 07:25:07;;;;;;;14.50;7.40;;;;;;;11.60;74.90;100642.07;107618;1270;94893;-80
2022/10/05 07:27:42;;;;;;;14.40;7.50;;;;;;;11.72;74.62;100650.76;107588;1271;139150;-81
2022/10/05 07:30:14;;;;;;;19.00;7.00;;;;;;;11.94;74.35;100655.16;107549;1271;107899;-82
2022/10/05 07:32:55;;;;;;;18.30;7.20;;;;;;;12.22;73.88;100652.18;107441;1271;140448;-81
2022/10/05 07:38:30;;;;;;;15.50;8.10;;;;;;;12.86;73.07;100639.71;107504;1271;138600;-80
2022/10/05 07:41:06;;;;;;;15.00;7.20;;;;;;;13.09;72.21;100638.02;107617;1271;111463;-82
2022/10/05 07:43:43;;;;;;;15.00;7.40;;;;;;;13.22;71.95;100640.18;107591;1271;141143;-81
2022/10/05 07:46:50;;;;;;;14.30;6.90;;;;;;;13.23;71.10;100636.98;107611;1271;106508;-82
2022/10/05 07:49:31;;;;;;;10.50;5.50;;;;;;;13.24;70.97;100635.91;107525;1270;139290;-82
2022/10/05 07:52:04;;;;;;;12.10;6.00;;;;;;;13.19;70.59;100632.75;107677;1271;96204;-81
2022/10/05 07:54:44;;;;;;;15.00;6.00;;;;;;;13.13;70.37;100629.48;107701;1271;112675;-82
2022/10/05 07:57:20;;;;;;;14.20;6.70;;;;;;;13.10;70.27;100629.23;107627;1268;138939;-82
2022/10/05 07:59:56;;;;;;;9.90;6.00;;;;;;;13.11;70.26;100632.18;107622;1271;106302;-82
2022/10/05 08:02:31;;;;;;;13.40;6.20;;;;;;;13.16;70.23;100628.85;107558;1268;139680;-82
2022/10/05 08:05:04;;;;;;;16.80;7.70;;;;;;;13.26;70.29;100628.48;107779;1268;96109;-80
2022/10/05 08:07:35;;;;;;;13.50;6.50;;;;;;;13.58;70.53;100631.84;107550;1270;140143;-80
2022/10/05 08:10:19;;;;;;;14.10;5.80;;;;;;;13.91;69.48;100632.96;107588;1271;108905;-80
2022/10/05 08:13:05;;;;;;;14.10;6.00;;;;;;;14.03;68.59;100628.88;107667;1268;109031;-79
2022/10/05 08:15:39;;;;;;;12.90;5.80;;;;;;;14.03;68.36;100625.50;107529;1271;140229;-79
2022/10/05 08:18:20;;;;;;;16.80;6.20;;;;;;;14.06;68.20;100615.63;107716;1269;96085;-80
2022/10/05 08:20:54;;;;;;;13.80;5.80;;;;;;;14.22;67.93;100613.17;107563;1271;140123;-78
2022/10/05 08:23:27;;;;;;;12.80;5.80;;;;;;;14.71;68.10;100603.95;107701;1271;108918;-79
2022/10/05 08:26:08;;;;;;;11.60;5.50;;;;;;;15.23;67.65;100608.81;107634;1269;139694;-79
2022/10/05 08:28:41;;;;;;;12.10;5.20;;;;;;;15.53;66.30;100607.63;107714;1271;96188;-81
2022/10/05 08:31:18;;;;;;;10.30;5.10;;;;;;;15.55;65.31;100602.09;107800;1268;96040;-80
2022/10/05 08:33:50;;;;;;;;;;;;;;;15.50;65.01;100595.83;107761;1268;112485;-81
2022/10/05 08:36:27;;;;;;;10.40;4.90;;;;;;;15.44;64.99;100596.30;107718;1270;109143;-82
2022/10/05 08:38:58;;;;;;;;;;;;;;;15.40;64.96;100603.81;107555;1270;141899;-81
2022/10/05 08:42:00;;;;;;;10.60;5.70;;;;;;;15.41;65.08;100607.96;107674;1270;96127;-82
2022/10/05 08:45:02;;;;;;;10.00;4.60;;;;;;;15.45;64.85;100606.24;107610;1268;138501;-81
2022/10/05 08:47:59;;;;;;;9.10;5.20;;;;;;;15.50;64.76;100606.19;107628;1271;112494;-81
2022/10/05 08:50:43;;;;;;;11.60;4.70;;;;;;;15.58;64.72;100608.05;107509;1271;137941;-80
2022/10/05 08:53:41;;;;;;;11.60;4.50;;;;;;;15.69;64.75;100605.27;107698;1271;108831;-81
2022/10/05 08:56:29;;;;;;;7.70;4.40;;;;;;;15.77;64.16;100605.11;107578;1271;138020;-81
2022/10/05 08:59:21;;;;;;;9.10;4.40;;;;;;;15.82;64.21;100603.32;107796;1268;96225;-82
2022/10/05 09:02:16;;;;;;;9.80;4.70;;;;;;;15.87;63.78;100599.00;107556;1270;137877;-78
2022/10/05 09:05:10;;;;;;;9.20;3.90;;;;;;;15.96;63.56;100589.28;107738;1271;108444;-78
2022/10/05 09:08:01;;;;;;;9.20;4.20;;;;;;;16.04;63.17;100579.61;107560;1268;138106;-79
2022/10/05 09:10:58;;;;;;;11.40;4.40;;;;;;;16.11;62.77;100580.82;106451;1271;97833;-79
2022/10/05 09:13:37;;;;;;;9.00;3.70;;;;;;;16.20;62.61;100576.16;106039;1268;137993;-77
2022/10/05 09:16:35;;;;;;;10.70;4.10;;;;;;;16.35;62.56;100573.66;106188;1269;112901;-78
2022/10/05 09:19:39;;;;;;;12.30;4.60;;;;;;;16.54;62.07;100557.04;106090;1268;107859;-78
2022/10/05 09:22:15;;;;;;;10.90;4.90;;;;;;;16.69;62.14;100553.27;106197;1271;109423;-78
2022/10/05 09:24:54;;;;;;;9.80;4.30;;;;;;;16.76;61.96;100549.80;106296;1270;97867;-79
2022/10/05 09:27:37;;;;;;;9.40;4.60;;;;;;;16.79;61.68;100552.23;107478;1270;137747;-78
2022/10/05 09:30:19;;;;;;;9.30;5.00;;;;;;;16.84;61.35;100555.11;107281;1271;111426;-80
2022/10/05 09:33:37;;;;;;;11.80;4.70;;;;;;;16.87;60.84;100559.73;106099;1270;138378;-80
2022/10/05 09:36:37;;;;;;;10.20;4.40;;;;;;;16.79;60.53;100559.80;106097;1271;107779;-79
2022/10/05 09:39:39;;;;;;;7.30;4.20;;;;;;;16.75;60.57;100548.79;106016;1268;138154;-79
2022/10/05 09:42:27;;;;;;;10.40;5.40;;;;;;;16.72;60.62;100546.66;106184;1271;97818;-80
2022/10/05 09:45:30;;;;;;;8.40;4.70;;;;;;;16.81;60.95;100554.42;106071;1271;138592;-80
2022/10/05 09:48:40;;;;;;;8.80;3.90;;;;;;;16.98;60.78;100558.64;106159;1270;108906;-82
2022/10/05 09:51:42;;;;;;;10.80;3.90;;;;;;;17.07;59.76;100564.98;105771;1275;139950;-79
2022/10/05 09:54:46;;;;;;;10.30;3.90;;;;;;;16.99;59.13;100565.42;105831;1276;97840;-79
2022/10/05 09:57:41;;;;;;;10.20;4.20;;;;;;;17.06;59.42;100566.61;105585;1277;138786;-84
2022/10/05 10:00:20;;;;;;;10.70;3.70;;;;;;;17.24;59.68;100561.08;105736;1277;113050;-80
2022/10/05 10:03:23;;;;;;;6.40;3.30;;;;;;;17.39;58.92;100564.42;105641;1276;138209;-84
2022/10/05 10:06:13;;;;;;;10.80;3.70;;;;;;;17.43;58.44;100573.03;105926;1276;108881;-81
2022/10/05 10:09:03;;;;;;;5.70;3.70;;;;;;;17.43;58.52;100570.04;105645;1277;139831;-84
2022/10/05 10:11:43;;;;;;;9.20;3.90;;;;;;;17.54;58.61;100575.41;105848;1277;97713;-82
2022/10/05 10:14:53;;;;;;;5.70;3.40;;;;;;;17.71;58.78;100583.98;105695;1277;138796;-82
2022/10/05 10:17:46;;;;;;;6.70;3.40;;;;;;;18.06;58.62;100585.64;105741;1277;109182;-85
2022/10/05 10:20:30;;;;;;;7.40;3.50;;;;;;;18.42;57.75;100587.27;105570;1277;138897;-82
2022/10/05 10:23:14;;;;;;;8.40;4.00;;;;;;;18.71;57.37;100583.53;105790;1277;98066;-84
2022/10/05 10:26:01;;;;;;;6.70;3.90;;;;;;;19.02;56.59;100590.82;105761;1276;139738;-81
2022/10/05 10:28:55;;;;;;;8.30;3.80;;;;;;;19.16;56.68;100583.78;106006;1268;111519;-83
2022/10/05 10:31:52;;;;;;;7.70;3.50;;;;;;;19.35;56.39;100577.64;106078;1268;138980;-82
2022/10/05 10:34:41;;;;;;;7.10;3.50;;;;;;;19.45;55.33;100568.58;106122;1270;108176;-81
2022/10/05 10:37:36;;;;;;;7.70;3.60;;;;;;;19.27;54.25;100560.73;106236;1268;97893;-81
2022/10/05 10:40:20;;;;;;;11.20;3.30;;;;;;;18.99;54.18;100558.60;107785;1270;96077;-82
2022/10/05 10:43:08;;;;;;;6.70;3.20;;;;;;;18.84;54.57;100554.10;107870;1268;111202;-82
2022/10/05 10:45:49;;;;;;;10.70;3.90;;;;;;;18.94;54.31;100550.11;106947;1270;138513;-82
2022/10/05 10:48:56;;;;;;;5.60;3.50;;;;;;;18.99;54.44;100539.19;106021;1270;108996;-85
2022/10/05 10:51:48;;;;;;;7.90;3.70;;;;;;;19.02;53.58;100529.37;105897;1270;165839;-83
2022/10/05 10:55:03;;;;;;;12.50;3.30;;;;;;;18.90;54.00;100522.33;106214;1270;97828;-76
2022/10/05 10:57:48;;;;;;;8.10;3.50;;;;;;;18.77;53.88;100519.27;106005;1271;137721;-79
2022/10/05 11:00:45;;;;;;;8.00;3.60;;;;;;;18.74;54.21;100516.16;106095;1270;108386;-81
2022/10/05 11:03:47;;;;;;;8.70;3.70;;;;;;;18.76;54.70;100522.14;106016;1270;139035;-81
2022/10/05 11:06:39;;;;;;;6.10;3.20;;;;;;;18.86;54.32;100520.52;106159;1270;97859;-80
2022/10/05 11:09:33;;;;;;;9.30;3.10;;;;;;;18.86;54.20;100508.33;106064;1271;137826;-82
2022/10/05 11:12:32;;;;;;;7.50;3.00;;;;;;;18.81;54.21;100506.88;106239;1270;112341;-78
2022/10/05 11:15:28;;;;;;;5.40;3.00;;;;;;;18.71;53.91;100508.94;105965;1271;137773;-80
2022/10/05 11:18:14;;;;;;;8.00;3.60;;;;;;;18.63;54.08;100513.20;106132;1271;108835;-81
2022/10/05 11:21:20;;;;;;;8.90;3.70;;;;;;;18.61;54.14;100509.83;106066;1271;138132;-81
2022/10/05 11:24:37;;;;;;;7.10;3.20;;;;;;;18.57;53.77;100511.33;105989;1271;97807;-81
2022/10/05 11:27:36;;;;;;;6.30;3.30;;;;;;;18.47;54.03;100509.62;105709;1275;140278;-79
2022/10/05 11:30:47;;;;;;;6.30;3.10;;;;;;;18.45;54.38;100505.33;105745;1276;109312;-78
2022/10/05 11:33:47;;;;;;;10.30;3.40;;;;;;;18.57;54.28;100510.08;105262;1282;139619;-82
2022/10/05 11:36:41;;;;;;;8.50;2.90;;;;;;;18.68;54.02;100505.75;105293;1284;97901;-83
2022/10/05 11:39:40;;;;;;;5.40;2.90;;;;;;;18.63;54.03;100503.39;105082;1284;137832;-83
2022/10/05 11:42:42;;;;;;;6.70;3.10;;;;;;;18.56;54.11;100508.93;105179;1281;112747;-82
2022/10/05 11:45:24;;;;;;;8.00;2.90;;;;;;;18.51;54.21;100501.85;105204;1282;138078;-86
2022/10/05 11:48:28;;;;;;;4.10;3.00;;;;;;;18.47;54.09;100497.49;105384;1283;109204;-83
2022/10/05 11:51:33;;;;;;;11.00;3.20;;;;;;;18.44;53.84;100495.73;105246;1283;138098;-82
2022/10/05 11:54:16;;;;;;;8.40;3.80;;;;;;;18.35;53.77;100501.41;104656;1287;97886;-86
2022/10/05 11:56:52;;;;;;;7.80;3.40;;;;;;;18.25;53.78;100503.02;104703;1287;138849;-82
2022/10/05 11:59:33;;;;;;;8.40;3.30;;;;;;;18.18;53.78;100490.65;104790;1287;108916;-83
2022/10/05 12:02:15;;;;;;;8.30;3.50;;;;;;;18.14;54.14;100489.27;104635;1287;138869;-83
2022/10/05 12:04:51;;;;;;;7.00;3.50;;;;;;;18.12;53.83;100497.33;105352;1281;97947;-85
2022/10/05 12:07:30;;;;;;;6.50;3.80;;;;;;;18.06;54.17;100500.10;105526;1282;138333;-83
2022/10/05 12:10:15;;;;;;;7.20;3.50;;;;;;;18.03;54.02;100501.00;105779;1277;112745;-87
2022/10/05 12:12:58;;;;;;;9.10;3.80;;;;;;;17.99;54.55;100503.38;105917;1277;110880;-85
2022/10/05 12:15:34;;;;;;;9.00;4.10;;;;;;;17.93;54.46;100501.76;105777;1276;139664;-84
2022/10/05 12:18:12;;;;;;;8.90;4.40;;;;;;;17.88;54.72;100508.56;105843;1276;97906;-86
2022/10/05 12:20:49;;;;;;;8.90;3.90;;;;;;;17.82;54.69;100503.83;105807;1276;137818;-83